sensor_id;sensor_type;location;lat;lon;timestamp;pressure;altitude;pressure_sealevel;temperature
61189;BMP280;47054;39.716;2.904;2023-04-06T00:01:09;100565.47;;;20.20
61189;BMP280;47054;39.716;2.904;2023-04-06T00:03:54;100563.56;;;20.21
61189;BMP280;47054;39.716;2.904;2023-04-06T00:06:38;100563.56;;;20.21
61189;BMP280;47054;39.716;2.904;2023-04-06T00:09:23;100568.94;;;20.21
61189;BMP280;47054;39.716;2.904;2023-04-06T00:12:07;100569.72;;;20.21
61189;BMP280;47054;39.716;2.904;2023-04-06T00:14:52;100571.63;;;20.21
61189;BMP280;47054;39.716;2.904;2023-04-06T00:17:37;100566.25;;;20.21
61189;BMP280;47054;39.716;2.904;2023-04-06T00:20:21;100568.94;;;20.21
61189;BMP280;47054;39.716;2.904;2023-04-06T00:23:05;100563.56;;;20.21
61189;BMP280;47054;39.716;2.904;2023-04-06T00:25:50;100559.72;;;20.22
61189;BMP280;47054;39.716;2.904;2023-04-06T00:28:34;100562.00;;;20.20
61189;BMP280;47054;39.716;2.904;2023-04-06T00:31:19;100557.38;;;20.20
61189;BMP280;47054;39.716;2.904;2023-04-06T00:34:05;100569.69;;;20.18
61189;BMP280;47054;39.716;2.904;2023-04-06T00:36:50;100560.44;;;20.19
61189;BMP280;47054;39.716;2.904;2023-04-06T00:39:34;100559.31;;;20.20
61189;BMP280;47054;39.716;2.904;2023-04-06T00:42:21;100565.47;;;20.20
61189;BMP280;47054;39.716;2.904;2023-04-06T00:45:10;100554.69;;;20.17
61189;BMP280;47054;39.716;2.904;2023-04-06T00:47:55;100562.78;;;20.20
61189;BMP280;47054;39.716;2.904;2023-04-06T00:50:40;100562.78;;;20.20
61189;BMP280;47054;39.716;2.904;2023-04-06T00:53:25;100563.91;;;20.19
61189;BMP280;47054;39.716;2.904;2023-04-06T00:56:10;100557.38;;;20.20
61189;BMP280;47054;39.716;2.904;2023-04-06T00:59:06;100561.22;;;20.19
61189;BMP280;47054;39.716;2.904;2023-04-06T01:01:51;100548.50;;;20.13
61189;BMP280;47054;39.716;2.904;2023-04-06T01:04:52;100558.53;;;20.19
61189;BMP280;47054;39.716;2.904;2023-04-06T01:07:50;100533.06;;;20.06
61189;BMP280;47054;39.716;2.904;2023-04-06T01:10:39;100552.78;;;20.17
61189;BMP280;47054;39.716;2.904;2023-04-06T01:13:37;100543.13;;;20.16
61189;BMP280;47054;39.716;2.904;2023-04-06T01:16:25;100542.34;;;20.16
61189;BMP280;47054;39.716;2.904;2023-04-06T01:19:28;100545.06;;;20.16
61189;BMP280;47054;39.716;2.904;2023-04-06T01:22:16;100544.69;;;20.17
61189;BMP280;47054;39.716;2.904;2023-04-06T01:25:09;100548.53;;;20.16
61189;BMP280;47054;39.716;2.904;2023-04-06T01:28:08;100541.22;;;20.13
61189;BMP280;47054;39.716;2.904;2023-04-06T01:31:10;100538.13;;;20.15
61189;BMP280;47054;39.716;2.904;2023-04-06T01:34:05;100532.75;;;20.15
61189;BMP280;47054;39.716;2.904;2023-04-06T01:36:51;100541.56;;;20.15
61189;BMP280;47054;39.716;2.904;2023-04-06T01:39:44;100532.34;;;20.13
61189;BMP280;47054;39.716;2.904;2023-04-06T01:42:35;100533.50;;;20.15
61189;BMP280;47054;39.716;2.904;2023-04-06T01:45:20;100528.13;;;20.15
61189;BMP280;47054;39.716;2.904;2023-04-06T01:48:07;100528.13;;;20.15
61189;BMP280;47054;39.716;2.904;2023-04-06T01:50:52;100529.28;;;20.14
61189;BMP280;47054;39.716;2.904;2023-04-06T01:53:41;100525.41;;;20.15
61189;BMP280;47054;39.716;2.904;2023-04-06T01:56:26;100524.66;;;20.15
61189;BMP280;47054;39.716;2.904;2023-04-06T01:59:19;100523.91;;;20.14
61189;BMP280;47054;39.716;2.904;2023-04-06T02:02:04;100520.81;;;20.16
61189;BMP280;47054;39.716;2.904;2023-04-06T02:04:50;100525.81;;;20.14
61189;BMP280;47054;39.716;2.904;2023-04-06T02:07:35;100525.81;;;20.14
61189;BMP280;47054;39.716;2.904;2023-04-06T02:10:19;100525.81;;;20.14
61189;BMP280;47054;39.716;2.904;2023-04-06T02:13:04;100533.88;;;20.14
61189;BMP280;47054;39.716;2.904;2023-04-06T02:15:49;100527.34;;;20.11
61189;BMP280;47054;39.716;2.904;2023-04-06T02:18:34;100524.66;;;20.08
61189;BMP280;47054;39.716;2.904;2023-04-06T02:21:19;100531.19;;;20.14
61189;BMP280;47054;39.716;2.904;2023-04-06T02:24:04;100541.97;;;20.14
61189;BMP280;47054;39.716;2.904;2023-04-06T02:26:49;100539.28;;;20.14
61189;BMP280;47054;39.716;2.904;2023-04-06T02:29:34;100535.03;;;20.13
61189;BMP280;47054;39.716;2.904;2023-04-06T02:32:19;100535.03;;;20.13
61189;BMP280;47054;39.716;2.904;2023-04-06T02:35:04;100539.66;;;20.12
61189;BMP280;47054;39.716;2.904;2023-04-06T02:37:51;100545.81;;;20.13
61189;BMP280;47054;39.716;2.904;2023-04-06T02:40:35;100541.56;;;20.12
61189;BMP280;47054;39.716;2.904;2023-04-06T02:43:31;100541.56;;;20.12
61189;BMP280;47054;39.716;2.904;2023-04-06T02:46:23;100533.09;;;20.10
61189;BMP280;47054;39.716;2.904;2023-04-06T02:49:07;100536.56;;;20.10
61189;BMP280;47054;39.716;2.904;2023-04-06T02:51:53;100540.41;;;20.09
61189;BMP280;47054;39.716;2.904;2023-04-06T02:54:45;100536.94;;;20.09
61189;BMP280;47054;39.716;2.904;2023-04-06T02:57:30;100531.56;;;20.09
61189;BMP280;47054;39.716;2.904;2023-04-06T03:00:15;100528.13;;;20.08
61189;BMP280;47054;39.716;2.904;2023-04-06T03:03:00;100529.66;;;20.09
61189;BMP280;47054;39.716;2.904;2023-04-06T03:05:45;100536.19;;;20.08
61189;BMP280;47054;39.716;2.904;2023-04-06T03:08:32;100530.81;;;20.08
61189;BMP280;47054;39.716;2.904;2023-04-06T03:11:16;100530.03;;;20.08
61189;BMP280;47054;39.716;2.904;2023-04-06T03:14:01;100527.34;;;20.08
61189;BMP280;47054;39.716;2.904;2023-04-06T03:16:46;100523.88;;;20.07
61189;BMP280;47054;39.716;2.904;2023-04-06T03:19:35;100521.19;;;20.07
61189;BMP280;47054;39.716;2.904;2023-04-06T03:22:21;100522.31;;;20.06
61189;BMP280;47054;39.716;2.904;2023-04-06T03:25:06;100521.19;;;20.07
61189;BMP280;47054;39.716;2.904;2023-04-06T03:27:51;100517.72;;;20.07
61189;BMP280;47054;39.716;2.904;2023-04-06T03:30:37;100527.69;;;20.06
61189;BMP280;47054;39.716;2.904;2023-04-06T03:33:22;100518.06;;;20.05
61189;BMP280;47054;39.716;2.904;2023-04-06T03:36:11;100520.03;;;20.05
61189;BMP280;47054;39.716;2.904;2023-04-06T03:39:00;100515.38;;;20.05
61189;BMP280;47054;39.716;2.904;2023-04-06T03:41:44;100514.66;;;20.05
61189;BMP280;47054;39.716;2.904;2023-04-06T03:44:48;100521.94;;;20.04
61189;BMP280;47054;39.716;2.904;2023-04-06T03:47:33;100515.00;;;20.03
61189;BMP280;47054;39.716;2.904;2023-04-06T03:50:21;100521.94;;;20.04
61189;BMP280;47054;39.716;2.904;2023-04-06T03:53:06;100511.53;;;20.03
61189;BMP280;47054;39.716;2.904;2023-04-06T03:55:51;100513.09;;;20.04
61189;BMP280;47054;39.716;2.904;2023-04-06T03:58:36;100515.00;;;20.03
61189;BMP280;47054;39.716;2.904;2023-04-06T04:01:20;100518.81;;;20.02
61189;BMP280;47054;39.716;2.904;2023-04-06T04:04:05;100519.59;;;20.03
61189;BMP280;47054;39.716;2.904;2023-04-06T04:06:50;100524.22;;;20.02
61189;BMP280;47054;39.716;2.904;2023-04-06T04:09:34;100524.22;;;20.02
61189;BMP280;47054;39.716;2.904;2023-04-06T04:12:19;100527.31;;;20.01
61189;BMP280;47054;39.716;2.904;2023-04-06T04:15:04;100524.22;;;20.02
61189;BMP280;47054;39.716;2.904;2023-04-06T04:17:49;100526.53;;;20.00
61189;BMP280;47054;39.716;2.904;2023-04-06T04:20:34;100538.09;;;20.01
61189;BMP280;47054;39.716;2.904;2023-04-06T04:23:19;100532.28;;;19.99
61189;BMP280;47054;39.716;2.904;2023-04-06T04:26:04;100547.28;;;20.00
61189;BMP280;47054;39.716;2.904;2023-04-06T04:28:49;100543.81;;;19.99
61189;BMP280;47054;39.716;2.904;2023-04-06T04:31:34;100551.88;;;19.99
61189;BMP280;47054;39.716;2.904;2023-04-06T04:34:22;100551.09;;;19.99
61189;BMP280;47054;39.716;2.904;2023-04-06T04:37:09;100555.72;;;19.98
61189;BMP280;47054;39.716;2.904;2023-04-06T04:40:05;100551.50;;;19.97
61189;BMP280;47054;39.716;2.904;2023-04-06T04:42:59;100554.19;;;19.97
61189;BMP280;47054;39.716;2.904;2023-04-06T04:45:49;100547.28;;;19.96
61189;BMP280;47054;39.716;2.904;2023-04-06T04:48:52;100555.34;;;19.96
61189;BMP280;47054;39.716;2.904;2023-04-06T04:51:37;100552.66;;;19.96
61189;BMP280;47054;39.716;2.904;2023-04-06T04:54:29;100552.25;;;19.94
61189;BMP280;47054;39.716;2.904;2023-04-06T04:57:14;100555.69;;;19.95
61189;BMP280;47054;39.716;2.904;2023-04-06T05:00:01;100559.16;;;19.95
61189;BMP280;47054;39.716;2.904;2023-04-06T05:02:47;100560.31;;;19.94
61189;BMP280;47054;39.716;2.904;2023-04-06T05:05:42;100557.63;;;19.94
61189;BMP280;47054;39.716;2.904;2023-04-06T05:08:26;100572.22;;;19.93
61189;BMP280;47054;39.716;2.904;2023-04-06T05:11:11;100569.16;;;19.95
61189;BMP280;47054;39.716;2.904;2023-04-06T05:14:01;100564.94;;;19.94
61189;BMP280;47054;39.716;2.904;2023-04-06T05:16:46;100574.13;;;19.93
61189;BMP280;47054;39.716;2.904;2023-04-06T05:19:31;100585.69;;;19.93
61189;BMP280;47054;39.716;2.904;2023-04-06T05:22:16;100579.53;;;19.93
61189;BMP280;47054;39.716;2.904;2023-04-06T05:25:05;100577.22;;;19.91
61189;BMP280;47054;39.716;2.904;2023-04-06T05:27:52;100587.59;;;19.93
61189;BMP280;47054;39.716;2.904;2023-04-06T05:30:46;100586.06;;;19.92
61189;BMP280;47054;39.716;2.904;2023-04-06T05:33:32;100594.91;;;19.92
61189;BMP280;47054;39.716;2.904;2023-04-06T05:36:39;100588.34;;;19.90
61189;BMP280;47054;39.716;2.904;2023-04-06T05:39:35;100592.97;;;19.89
61189;BMP280;47054;39.716;2.904;2023-04-06T05:42:20;100595.66;;;19.89
61189;BMP280;47054;39.716;2.904;2023-04-06T05:45:10;100596.44;;;19.90
61189;BMP280;47054;39.716;2.904;2023-04-06T05:47:56;100595.66;;;19.89
61189;BMP280;47054;39.716;2.904;2023-04-06T05:50:49;100604.50;;;19.90
61189;BMP280;47054;39.716;2.904;2023-04-06T05:53:42;100606.03;;;19.87
61189;BMP280;47054;39.716;2.904;2023-04-06T05:56:27;100612.19;;;19.88
61189;BMP280;47054;39.716;2.904;2023-04-06T05:59:12;100607.97;;;19.87
61189;BMP280;47054;39.716;2.904;2023-04-06T06:01:57;100606.41;;;19.86
61189;BMP280;47054;39.716;2.904;2023-04-06T06:04:42;100614.88;;;19.88
61189;BMP280;47054;39.716;2.904;2023-04-06T06:07:27;100619.50;;;19.87
61189;BMP280;47054;39.716;2.904;2023-04-06T06:10:17;100619.84;;;19.86
61189;BMP280;47054;39.716;2.904;2023-04-06T06:13:02;100633.72;;;19.88
61189;BMP280;47054;39.716;2.904;2023-04-06T06:15:46;100623.31;;;19.86
61189;BMP280;47054;39.716;2.904;2023-04-06T06:18:31;100624.09;;;19.87
61189;BMP280;47054;39.716;2.904;2023-04-06T06:21:17;100624.44;;;19.85
61189;BMP280;47054;39.716;2.904;2023-04-06T06:24:02;100627.94;;;19.86
61189;BMP280;47054;39.716;2.904;2023-04-06T06:26:47;100635.22;;;19.85
61189;BMP280;47054;39.716;2.904;2023-04-06T06:29:35;100637.13;;;19.85
61189;BMP280;47054;39.716;2.904;2023-04-06T06:32:19;100643.69;;;19.84
61189;BMP280;47054;39.716;2.904;2023-04-06T06:35:08;100639.03;;;19.84
61189;BMP280;47054;39.716;2.904;2023-04-06T06:37:53;100637.91;;;19.85
61189;BMP280;47054;39.716;2.904;2023-04-06T06:40:42;100640.59;;;19.85
61189;BMP280;47054;39.716;2.904;2023-04-06T06:43:28;100641.72;;;19.84
61189;BMP280;47054;39.716;2.904;2023-04-06T06:46:20;100639.81;;;19.85
61189;BMP280;47054;39.716;2.904;2023-04-06T06:49:05;100643.69;;;19.84
61189;BMP280;47054;39.716;2.904;2023-04-06T06:51:50;100644.41;;;19.84
61189;BMP280;47054;39.716;2.904;2023-04-06T06:54:35;100647.13;;;19.84
61189;BMP280;47054;39.716;2.904;2023-04-06T06:57:19;100643.69;;;19.84
61189;BMP280;47054;39.716;2.904;2023-04-06T07:00:06;100645.19;;;19.85
61189;BMP280;47054;39.716;2.904;2023-04-06T07:02:52;100636.34;;;19.84
61189;BMP280;47054;39.716;2.904;2023-04-06T07:05:36;100648.66;;;19.85
61189;BMP280;47054;39.716;2.904;2023-04-06T07:08:22;100645.19;;;19.85
61189;BMP280;47054;39.716;2.904;2023-04-06T07:11:07;100639.03;;;19.84
61189;BMP280;47054;39.716;2.904;2023-04-06T07:13:51;100637.13;;;19.85
61189;BMP280;47054;39.716;2.904;2023-04-06T07:16:36;100632.53;;;19.85
61189;BMP280;47054;39.716;2.904;2023-04-06T07:19:20;100634.44;;;19.85
61189;BMP280;47054;39.716;2.904;2023-04-06T07:22:05;100634.44;;;19.85
61189;BMP280;47054;39.716;2.904;2023-04-06T07:24:49;100631.75;;;19.85
61189;BMP280;47054;39.716;2.904;2023-04-06T07:27:34;100631.41;;;19.86
61189;BMP280;47054;39.716;2.904;2023-04-06T07:30:19;100639.47;;;19.86
61189;BMP280;47054;39.716;2.904;2023-04-06T07:33:06;100642.50;;;19.85
61189;BMP280;47054;39.716;2.904;2023-04-06T07:35:52;100635.22;;;19.85
61189;BMP280;47054;39.716;2.904;2023-04-06T07:38:37;100641.38;;;19.86
61189;BMP280;47054;39.716;2.904;2023-04-06T07:41:22;100645.19;;;19.85
61189;BMP280;47054;39.716;2.904;2023-04-06T07:44:06;100657.53;;;19.86
61189;BMP280;47054;39.716;2.904;2023-04-06T07:46:51;100652.94;;;19.86
61189;BMP280;47054;39.716;2.904;2023-04-06T07:49:38;100662.91;;;19.86
61189;BMP280;47054;39.716;2.904;2023-04-06T07:52:24;100654.84;;;19.86
61189;BMP280;47054;39.716;2.904;2023-04-06T07:55:08;100657.53;;;19.86
61189;BMP280;47054;39.716;2.904;2023-04-06T07:57:53;100655.63;;;19.86
61189;BMP280;47054;39.716;2.904;2023-04-06T08:00:38;100664.47;;;19.87
61189;BMP280;47054;39.716;2.904;2023-04-06T08:03:22;100666.38;;;19.86
61189;BMP280;47054;39.716;2.904;2023-04-06T08:06:09;100659.09;;;19.87
61189;BMP280;47054;39.716;2.904;2023-04-06T08:08:54;100664.47;;;19.87
61189;BMP280;47054;39.716;2.904;2023-04-06T08:11:39;100670.63;;;19.87
61189;BMP280;47054;39.716;2.904;2023-04-06T08:14:24;100671.38;;;19.88
61189;BMP280;47054;39.716;2.904;2023-04-06T08:17:09;100669.47;;;19.88
61189;BMP280;47054;39.716;2.904;2023-04-06T08:19:53;100671.38;;;19.88
61189;BMP280;47054;39.716;2.904;2023-04-06T08:22:38;100672.16;;;19.88
61189;BMP280;47054;39.716;2.904;2023-04-06T08:25:22;100677.53;;;19.88
61189;BMP280;47054;39.716;2.904;2023-04-06T08:28:06;100673.31;;;19.87
61189;BMP280;47054;39.716;2.904;2023-04-06T08:30:53;100681.00;;;19.89
61189;BMP280;47054;39.716;2.904;2023-04-06T08:33:37;100674.84;;;19.88
61189;BMP280;47054;39.716;2.904;2023-04-06T08:36:23;100692.16;;;19.87
61189;BMP280;47054;39.716;2.904;2023-04-06T08:39:08;100689.84;;;19.89
61189;BMP280;47054;39.716;2.904;2023-04-06T08:41:53;100685.63;;;19.88
61189;BMP280;47054;39.716;2.904;2023-04-06T08:44:44;100691.00;;;19.88
61189;BMP280;47054;39.716;2.904;2023-04-06T08:47:30;100696.38;;;19.88
61189;BMP280;47054;39.716;2.904;2023-04-06T08:50:16;100689.06;;;19.89
61189;BMP280;47054;39.716;2.904;2023-04-06T08:53:01;100695.22;;;19.89
61189;BMP280;47054;39.716;2.904;2023-04-06T08:55:46;100696.38;;;19.88
61189;BMP280;47054;39.716;2.904;2023-04-06T08:58:39;100705.66;;;19.91
61189;BMP280;47054;39.716;2.904;2023-04-06T09:01:28;100702.19;;;19.90
61189;BMP280;47054;39.716;2.904;2023-04-06T09:04:14;100695.59;;;19.88
61189;BMP280;47054;39.716;2.904;2023-04-06T09:07:00;100695.59;;;19.88
61189;BMP280;47054;39.716;2.904;2023-04-06T09:09:45;100698.28;;;19.88
61189;BMP280;47054;39.716;2.904;2023-04-06T09:12:32;100700.25;;;19.87
61189;BMP280;47054;39.716;2.904;2023-04-06T09:15:22;100694.41;;;19.85
61189;BMP280;47054;39.716;2.904;2023-04-06T09:18:06;100694.84;;;19.87
61189;BMP280;47054;39.716;2.904;2023-04-06T09:21:01;100694.06;;;19.87
61189;BMP280;47054;39.716;2.904;2023-04-06T09:23:46;100699.06;;;19.88
61189;BMP280;47054;39.716;2.904;2023-04-06T09:26:32;100708.31;;;19.87
61189;BMP280;47054;39.716;2.904;2023-04-06T09:29:24;100702.53;;;19.89
61189;BMP280;47054;39.716;2.904;2023-04-06T09:32:11;100698.69;;;19.86
61189;BMP280;47054;39.716;2.904;2023-04-06T09:35:09;100699.81;;;19.89
61189;BMP280;47054;39.716;2.904;2023-04-06T09:37:54;100699.47;;;19.87
61189;BMP280;47054;39.716;2.904;2023-04-06T09:40:59;100698.28;;;19.88
61189;BMP280;47054;39.716;2.904;2023-04-06T09:43:44;100700.59;;;19.86
61189;BMP280;47054;39.716;2.904;2023-04-06T09:46:31;100693.63;;;19.85
61189;BMP280;47054;39.716;2.904;2023-04-06T09:49:16;100691.38;;;19.87
61189;BMP280;47054;39.716;2.904;2023-04-06T09:52:03;100701.38;;;19.86
61189;BMP280;47054;39.716;2.904;2023-04-06T09:54:50;100697.53;;;19.84
61189;BMP280;47054;39.716;2.904;2023-04-06T09:57:43;100702.16;;;19.87
61189;BMP280;47054;39.716;2.904;2023-04-06T10:00:32;100693.28;;;19.86
61189;BMP280;47054;39.716;2.904;2023-04-06T10:03:34;100697.91;;;19.86
61189;BMP280;47054;39.716;2.904;2023-04-06T10:06:25;100697.13;;;19.85
61189;BMP280;47054;39.716;2.904;2023-04-06T10:09:11;100700.94;;;19.84
61189;BMP280;47054;39.716;2.904;2023-04-06T10:11:58;100694.41;;;19.85
61189;BMP280;47054;39.716;2.904;2023-04-06T10:14:43;100692.13;;;19.84
61189;BMP280;47054;39.716;2.904;2023-04-06T10:17:28;100692.88;;;19.81
61189;BMP280;47054;39.716;2.904;2023-04-06T10:20:17;100691.72;;;19.85
61189;BMP280;47054;39.716;2.904;2023-04-06T10:23:06;100690.16;;;19.77
61189;BMP280;47054;39.716;2.904;2023-04-06T10:25:53;100689.00;;;19.78
61189;BMP280;47054;39.716;2.904;2023-04-06T10:28:41;100684.38;;;19.79
61189;BMP280;47054;39.716;2.904;2023-04-06T10:31:26;100680.56;;;19.80
61189;BMP280;47054;39.716;2.904;2023-04-06T10:34:12;100681.31;;;19.80
61189;BMP280;47054;39.716;2.904;2023-04-06T10:36:57;100686.31;;;19.82
61189;BMP280;47054;39.716;2.904;2023-04-06T10:39:52;100685.97;;;19.83
61189;BMP280;47054;39.716;2.904;2023-04-06T10:42:42;100663.94;;;19.70
61189;BMP280;47054;39.716;2.904;2023-04-06T10:45:31;100676.34;;;19.82
61189;BMP280;47054;39.716;2.904;2023-04-06T10:48:17;100672.84;;;19.78
61189;BMP280;47054;39.716;2.904;2023-04-06T10:51:10;100667.88;;;19.80
61189;BMP280;47054;39.716;2.904;2023-04-06T10:53:55;100672.88;;;19.82
61189;BMP280;47054;39.716;2.904;2023-04-06T10:56:41;100672.88;;;19.82
61189;BMP280;47054;39.716;2.904;2023-04-06T10:59:29;100668.25;;;19.79
61189;BMP280;47054;39.716;2.904;2023-04-06T11:02:20;100675.56;;;19.82
61189;BMP280;47054;39.716;2.904;2023-04-06T11:05:06;100674.78;;;19.81
61189;BMP280;47054;39.716;2.904;2023-04-06T11:07:51;100672.09;;;19.81
61189;BMP280;47054;39.716;2.904;2023-04-06T11:10:35;100667.13;;;19.80
61189;BMP280;47054;39.716;2.904;2023-04-06T11:13:20;100665.19;;;19.80
61189;BMP280;47054;39.716;2.904;2023-04-06T11:16:04;100669.41;;;19.81
61189;BMP280;47054;39.716;2.904;2023-04-06T11:18:55;100669.81;;;19.83
61189;BMP280;47054;39.716;2.904;2023-04-06T11:21:46;100656.72;;;19.82
61189;BMP280;47054;39.716;2.904;2023-04-06T11:24:33;100660.56;;;19.81
61189;BMP280;47054;39.716;2.904;2023-04-06T11:27:21;100658.28;;;19.83
61189;BMP280;47054;39.716;2.904;2023-04-06T11:30:06;100650.56;;;19.81
61189;BMP280;47054;39.716;2.904;2023-04-06T11:32:51;100660.56;;;19.81
61189;BMP280;47054;39.716;2.904;2023-04-06T11:35:37;100659.41;;;19.82
61189;BMP280;47054;39.716;2.904;2023-04-06T11:38:21;100657.09;;;19.80
61189;BMP280;47054;39.716;2.904;2023-04-06T11:41:06;100650.97;;;19.80
61189;BMP280;47054;39.716;2.904;2023-04-06T11:43:50;100650.56;;;19.81
61189;BMP280;47054;39.716;2.904;2023-04-06T11:46:35;100649.81;;;19.81
61189;BMP280;47054;39.716;2.904;2023-04-06T11:49:19;100642.50;;;19.81
61189;BMP280;47054;39.716;2.904;2023-04-06T11:55:10;100637.88;;;19.82
61189;BMP280;47054;39.716;2.904;2023-04-06T11:57:55;100639.03;;;19.81
61189;BMP280;47054;39.716;2.904;2023-04-06T12:00:40;100632.13;;;19.80
61189;BMP280;47054;39.716;2.904;2023-04-06T12:03:29;100626.34;;;19.81
61189;BMP280;47054;39.716;2.904;2023-04-06T12:06:13;100626.34;;;19.81
61189;BMP280;47054;39.716;2.904;2023-04-06T12:08:58;100625.97;;;19.79
61189;BMP280;47054;39.716;2.904;2023-04-06T12:11:43;100628.28;;;19.81
61189;BMP280;47054;39.716;2.904;2023-04-06T12:14:27;100637.09;;;19.81
61189;BMP280;47054;39.716;2.904;2023-04-06T12:17:13;100619.03;;;19.78
61189;BMP280;47054;39.716;2.904;2023-04-06T12:19:57;100619.44;;;19.80
61189;BMP280;47054;39.716;2.904;2023-04-06T12:22:41;100616.75;;;19.80
61189;BMP280;47054;39.716;2.904;2023-04-06T12:25:26;100606.75;;;19.81
61189;BMP280;47054;39.716;2.904;2023-04-06T12:28:10;100608.66;;;19.80
61189;BMP280;47054;39.716;2.904;2023-04-06T12:30:55;100606.38;;;19.82
61189;BMP280;47054;39.716;2.904;2023-04-06T12:33:39;100611.34;;;19.80
61189;BMP280;47054;39.716;2.904;2023-04-06T12:36:24;100594.06;;;19.81
61189;BMP280;47054;39.716;2.904;2023-04-06T12:39:09;100605.59;;;19.82
61189;BMP280;47054;39.716;2.904;2023-04-06T12:41:53;100598.69;;;19.81
61189;BMP280;47054;39.716;2.904;2023-04-06T12:44:39;100594.06;;;19.81
61189;BMP280;47054;39.716;2.904;2023-04-06T12:47:25;100586.75;;;19.78
61189;BMP280;47054;39.716;2.904;2023-04-06T12:50:10;100593.31;;;19.81
61189;BMP280;47054;39.716;2.904;2023-04-06T12:52:55;100596.75;;;19.81
61189;BMP280;47054;39.716;2.904;2023-04-06T12:55:39;100576.00;;;19.82
61189;BMP280;47054;39.716;2.904;2023-04-06T12:58:24;100578.69;;;19.82
61189;BMP280;47054;39.716;2.904;2023-04-06T13:01:11;100572.94;;;19.80
61189;BMP280;47054;39.716;2.904;2023-04-06T13:03:58;100573.31;;;19.82
61189;BMP280;47054;39.716;2.904;2023-04-06T13:06:43;100574.09;;;19.82
61189;BMP280;47054;39.716;2.904;2023-04-06T13:09:28;100577.16;;;19.81
61189;BMP280;47054;39.716;2.904;2023-04-06T13:12:12;100573.69;;;19.80
61189;BMP280;47054;39.716;2.904;2023-04-06T13:14:58;100574.88;;;19.83
61189;BMP280;47054;39.716;2.904;2023-04-06T13:17:42;100554.13;;;19.83
61189;BMP280;47054;39.716;2.904;2023-04-06T13:20:27;100566.78;;;19.83
61189;BMP280;47054;39.716;2.904;2023-04-06T13:23:12;100564.09;;;19.83
61189;BMP280;47054;39.716;2.904;2023-04-06T13:26:01;100567.94;;;19.85
61189;BMP280;47054;39.716;2.904;2023-04-06T13:28:47;100575.66;;;19.83
61189;BMP280;47054;39.716;2.904;2023-04-06T13:31:32;100571.38;;;19.82
61189;BMP280;47054;39.716;2.904;2023-04-06T13:34:17;100552.13;;;19.73
61189;BMP280;47054;39.716;2.904;2023-04-06T13:37:01;100568.34;;;19.84
61189;BMP280;47054;39.716;2.904;2023-04-06T13:39:46;100576.41;;;19.84
61189;BMP280;47054;39.716;2.904;2023-04-06T13:42:31;100569.84;;;19.81
61189;BMP280;47054;39.716;2.904;2023-04-06T13:45:16;100567.56;;;19.83
61189;BMP280;47054;39.716;2.904;2023-04-06T13:48:00;100574.44;;;19.84
61189;BMP280;47054;39.716;2.904;2023-04-06T13:50:45;100569.06;;;19.84
61189;BMP280;47054;39.716;2.904;2023-04-06T13:53:30;100562.97;;;19.84
61189;BMP280;47054;39.716;2.904;2023-04-06T13:56:14;100563.69;;;19.84
61189;BMP280;47054;39.716;2.904;2023-04-06T13:58:59;100565.25;;;19.85
61189;BMP280;47054;39.716;2.904;2023-04-06T14:01:43;100566.38;;;19.84
61189;BMP280;47054;39.716;2.904;2023-04-06T14:04:29;100564.47;;;19.85
61189;BMP280;47054;39.716;2.904;2023-04-06T14:07:13;100571.03;;;19.84
61189;BMP280;47054;39.716;2.904;2023-04-06T14:09:58;100557.16;;;19.82
61189;BMP280;47054;39.716;2.904;2023-04-06T14:12:44;100562.56;;;19.85
61189;BMP280;47054;39.716;2.904;2023-04-06T14:15:29;100563.69;;;19.84
61189;BMP280;47054;39.716;2.904;2023-04-06T14:18:14;100560.66;;;19.86
61189;BMP280;47054;39.716;2.904;2023-04-06T14:21:00;100559.88;;;19.85
61189;BMP280;47054;39.716;2.904;2023-04-06T14:23:45;100559.88;;;19.85
61189;BMP280;47054;39.716;2.904;2023-04-06T14:26:30;100560.66;;;19.86
61189;BMP280;47054;39.716;2.904;2023-04-06T14:29:14;100567.94;;;19.85
61189;BMP280;47054;39.716;2.904;2023-04-06T14:32:00;100564.47;;;19.85
61189;BMP280;47054;39.716;2.904;2023-04-06T14:34:44;100559.09;;;19.85
61189;BMP280;47054;39.716;2.904;2023-04-06T14:37:29;100564.47;;;19.85
61189;BMP280;47054;39.716;2.904;2023-04-06T14:40:14;100563.34;;;19.86
61189;BMP280;47054;39.716;2.904;2023-04-06T14:42:59;100559.88;;;19.85
61189;BMP280;47054;39.716;2.904;2023-04-06T14:45:44;100557.94;;;19.86
61189;BMP280;47054;39.716;2.904;2023-04-06T14:48:29;100550.66;;;19.83
61189;BMP280;47054;39.716;2.904;2023-04-06T14:51:13;100544.13;;;19.84
61189;BMP280;47054;39.716;2.904;2023-04-06T14:54:01;100551.44;;;19.87
61189;BMP280;47054;39.716;2.904;2023-04-06T14:56:47;100555.25;;;19.86
61189;BMP280;47054;39.716;2.904;2023-04-06T14:59:32;100566.81;;;19.86
61189;BMP280;47054;39.716;2.904;2023-04-06T15:02:17;100558.72;;;19.83
61189;BMP280;47054;39.716;2.904;2023-04-06T15:05:01;100557.94;;;19.86
61189;BMP280;47054;39.716;2.904;2023-04-06T15:07:47;100562.97;;;19.87
61189;BMP280;47054;39.716;2.904;2023-04-06T15:10:34;100550.22;;;19.84
61189;BMP280;47054;39.716;2.904;2023-04-06T15:13:19;100551.78;;;19.85
61189;BMP280;47054;39.716;2.904;2023-04-06T15:16:05;100546.03;;;19.83
61189;BMP280;47054;39.716;2.904;2023-04-06T15:18:50;100547.19;;;19.86
61189;BMP280;47054;39.716;2.904;2023-04-06T15:21:34;100547.19;;;19.86
61189;BMP280;47054;39.716;2.904;2023-04-06T15:24:19;100547.19;;;19.86
61189;BMP280;47054;39.716;2.904;2023-04-06T15:27:03;100529.91;;;19.83
61189;BMP280;47054;39.716;2.904;2023-04-06T15:29:48;100534.50;;;19.86
61189;BMP280;47054;39.716;2.904;2023-04-06T15:32:32;100534.50;;;19.86
61189;BMP280;47054;39.716;2.904;2023-04-06T15:35:17;100536.44;;;19.86
61189;BMP280;47054;39.716;2.904;2023-04-06T15:38:02;100534.50;;;19.86
61189;BMP280;47054;39.716;2.904;2023-04-06T15:40:48;100537.56;;;19.85
61189;BMP280;47054;39.716;2.904;2023-04-06T15:43:33;100545.28;;;19.86
61189;BMP280;47054;39.716;2.904;2023-04-06T15:46:18;100546.06;;;19.87
61189;BMP280;47054;39.716;2.904;2023-04-06T15:49:03;100542.22;;;19.88